Nearby METAR Reports

 

KOXC - Oxford/Waterbury, Connecticut, USA
Distance from station: SE 8mi, 12km
Updated: Wed, 04-Aug-2021 10:51am EDT
Clear
Clear
 Wind from calm
Wind: Calm
Temperature: 68°F , 20°C
Dew Point: 63°F , 17°C
Humidity: 83%
Barometer: 30.19 inHg , 1022.4 hPa
Clouds: Clear
Visibility: 10 miles , 16 km
2021/08/04 14:51 KOXC 041451Z 00000KT 10SM CLR 20/17 A3019 RMK AO2 SLP232 T02000172 53008
KDXR - Danbury, Connecticut, USA
Distance from station: SW 19mi, 30km
Updated: Wed, 04-Aug-2021 10:53am EDT
Clear
Clear
 Wind from ENE
Wind: ENE 5 mph , 7 km/h
Temperature: 70°F , 21°C
Dew Point: 59°F , 15°C
Humidity: 69%
Barometer: 30.18 inHg , 1022 hPa
Clouds: Clear
Visibility: 10 miles , 16 km
2021/08/04 14:53 KDXR 041453Z 06004KT 10SM CLR 21/15 A3018 RMK AO2 SLP216 T02110150 53007
 
KMMK - Meriden, Connecticut, USA
Distance from station: E 20mi, 33km
Updated: Wed, 04-Aug-2021 10:53am EDT
Clear
Clear
 Wind from NNW
Wind: NNW 5 mph , 7 km/h
Temperature: 72°F , 22°C
Dew Point: 57°F , 14°C
Humidity: 61%
Barometer: 30.16 inHg , 1021.3 hPa
Clouds: Clear
Visibility: 10 miles , 16 km
2021/08/04 14:53 KMMK 041453Z AUTO 34004KT 10SM CLR 22/14 A3016 RMK AO2 SLP213 T02170139 53007
KBDR - Bridgeport, Connecticut, USA
Distance from station: S 27mi, 44km
Updated: Wed, 04-Aug-2021 10:52am EDT
Clear
Clear
 Wind from E
Wind: E 6 mph , 9 km/h
Temperature: 72°F , 22°C
Dew Point: 61°F , 16°C
Humidity: 69%
Barometer: 30.15 inHg , 1021 hPa
Clouds: Clear
Visibility: 10 miles , 16 km
2021/08/04 14:52 KBDR 041452Z 08005KT 10SM CLR 22/16 A3015 RMK AO2 SLP210 T02220161 53004
 
KHVN - New Haven/Tweed, Connecticut, USA
Distance from station: SE 27mi, 44km
Updated: Wed, 04-Aug-2021 10:53am EDT
Overcast
Overcast
 Wind from N
Wind: N 3 mph , 6 km/h
Temperature: 73°F , 23°C
Dew Point: 61°F , 16°C
Humidity: 65%
Barometer: 30.16 inHg , 1021.3 hPa
Clouds: Overcast
Visibility: 10 miles , 16 km
Cloud details: Overcast 25000 ft
2021/08/04 14:53 KHVN 041453Z 01003KT 10SM OVC250 23/16 A3016 RMK AO2 SLP212 T02330156 53005
KHFD - Hartford/Brainar, Connecticut, USA
Distance from station: ENE 32mi, 52km
Updated: Wed, 04-Aug-2021 10:53am EDT
Clear
Clear
 Wind from NNW
Wind: NNW 5 mph , 7 km/h
Temperature: 72°F , 22°C
Dew Point: 57°F , 14°C
Humidity: 61%
Barometer: 30.16 inHg , 1021.3 hPa
Clouds: Clear
Visibility: 10 miles , 16 km
2021/08/04 14:53 KHFD 041453Z 34004KT 10SM CLR 22/14 A3016 RMK AO2 SLP213 T02170144 52006
 
KPOU - Poughkeepsie, New York, USA
Distance from station: W 35mi, 56km
Updated: Wed, 04-Aug-2021 10:53am EDT
Clear
Clear
 Wind from calm
Wind: Calm
Temperature: 70°F , 21°C
Dew Point: 61°F , 16°C
Humidity: 73%
Barometer: 30.16 inHg , 1021.3 hPa
Clouds: Clear
Visibility: 10 miles , 16 km
2021/08/04 14:53 KPOU 041453Z 00000KT 10SM CLR 21/16 A3016 RMK AO2 SLP207 T02110156 53004
KBDL - Windsor Locks, Connecticut, USA
Distance from station: NE 38mi, 62km
Updated: Wed, 04-Aug-2021 10:51am EDT
Overcast
Overcast
 Wind from varies
Wind: varies 5 mph , 7 km/h
Temperature: 72°F , 22°C
Dew Point: 59°F , 15°C
Humidity: 65%
Barometer: 30.17 inHg , 1021.7 hPa
Clouds: Overcast
Visibility: 10 miles , 16 km
Cloud details: Few Clouds 15000 ft
Partly cloudy 20000 ft
Overcast 25000 ft
2021/08/04 14:51 KBDL 041451Z VRB04KT 10SM FEW150 SCT200 OVC250 22/15 A3017 RMK AO2 SLP215 T02170150 51009
 
KSNC - Chester, Connecticut, USA
Distance from station: ESE 39mi, 63km
Updated: Wed, 04-Aug-2021 11:35am EDT
Few Clouds
Few Clouds
 Wind from NE
Wind: NE 3 mph , 6 km/h
Temperature: 73°F , 23°C
Dew Point: 59°F , 15°C
Humidity: 61%
Barometer: 30.17 inHg , 1021.7 hPa
Clouds: Few Clouds
Visibility: 10 miles , 16 km
Cloud details: Few Clouds 4800 ft
Few Clouds 7500 ft
Few Clouds 9500 ft
2021/08/04 15:35 KSNC 041535Z AUTO 05003KT 10SM FEW048 FEW075 FEW095 23/15 A3017 RMK AO2
KHPN - White Plains, New York, USA
Distance from station: SW 42mi, 67km
Updated: Wed, 04-Aug-2021 10:56am EDT
Few Clouds
Few Clouds
 Wind from ENE
Wind: ENE 3 mph , 6 km/h
Temperature: 72°F , 22°C
Dew Point: 61°F , 16°C
Humidity: 69%
Barometer: 30.15 inHg , 1021 hPa
Clouds: Few Clouds
Visibility: 10 miles , 16 km
Cloud details: Few Clouds 3000 ft
2021/08/04 14:56 KHPN 041456Z 06003KT 10SM FEW030 22/16 A3015 RMK AO2 SLP207 T02170156 53005
 
KSWF - Newburgh/Stewart, New York, USA
Distance from station: W 45mi, 72km
Updated: Wed, 04-Aug-2021 10:45am EDT
Mostly cloudy
Mostly cloudy
 Wind from calm
Wind: Calm
Temperature: 70°F , 21°C
Dew Point: 64°F , 18°C
Humidity: 83%
Barometer: 30.17 inHg , 1021.7 hPa
Clouds: Mostly cloudy
Visibility: 10 miles , 16 km
Cloud details: Mostly cloudy 9000 ft
2021/08/04 14:45 KSWF 041445Z 00000KT 10SM BKN090 21/18 A3017
KBAF - Westfield, Massachusetts, USA
Distance from station: NNE 50mi, 80km
Updated: Wed, 04-Aug-2021 10:53am EDT
Clear
Clear
 Wind from varies
Wind: varies 3 mph , 6 km/h
Temperature: 70°F , 21°C
Dew Point: 59°F , 15°C
Humidity: 69%
Barometer: 30.17 inHg , 1021.7 hPa
Clouds: Clear
Visibility: 10 miles , 16 km
2021/08/04 14:53 KBAF 041453Z VRB03KT 10SM CLR 21/15 A3017 RMK AO2 SLP215 T02110150 51008